sensor_id;sensor_type;location;lat;lon;timestamp;pressure;altitude;pressure_sealevel;temperature;humidity
42671;BME280;28283;55.426;37.756;2022-11-02T00:02:34;99216.78;;;1.37;79.30
42671;BME280;28283;55.426;37.756;2022-11-02T00:07:46;99213.72;;;1.31;80.04
42671;BME280;28283;55.426;37.756;2022-11-02T00:12:47;99209.53;;;1.29;80.14
42671;BME280;28283;55.426;37.756;2022-11-02T00:17:49;99148.50;;;0.93;80.05
42671;BME280;28283;55.426;37.756;2022-11-02T00:22:55;99194.59;;;1.38;79.85
42671;BME280;28283;55.426;37.756;2022-11-02T00:27:57;99170.34;;;1.32;79.56
42671;BME280;28283;55.426;37.756;2022-11-02T00:32:57;99167.31;;;1.27;79.69
42671;BME280;28283;55.426;37.756;2022-11-02T00:37:58;99179.03;;;1.25;80.82
42671;BME280;28283;55.426;37.756;2022-11-02T00:42:59;99169.28;;;1.25;80.25
42671;BME280;28283;55.426;37.756;2022-11-02T00:47:59;99150.09;;;1.13;80.87
42671;BME280;28283;55.426;37.756;2022-11-02T00:53:00;99128.94;;;1.04;80.71
42671;BME280;28283;55.426;37.756;2022-11-02T00:58:01;99137.44;;;1.07;80.78
42671;BME280;28283;55.426;37.756;2022-11-02T01:03:02;99164.91;;;1.34;80.85
42671;BME280;28283;55.426;37.756;2022-11-02T01:08:03;99169.53;;;1.32;80.65
42671;BME280;28283;55.426;37.756;2022-11-02T01:13:04;99126.97;;;1.06;81.24
42671;BME280;28283;55.426;37.756;2022-11-02T01:18:05;99150.59;;;1.27;81.26
42671;BME280;28283;55.426;37.756;2022-11-02T01:23:06;99146.50;;;1.42;80.86
42671;BME280;28283;55.426;37.756;2022-11-02T01:28:06;99158.72;;;1.43;80.42
42671;BME280;28283;55.426;37.756;2022-11-02T01:33:07;99090.59;;;1.18;79.52
42671;BME280;28283;55.426;37.756;2022-11-02T01:38:08;99151.19;;;1.48;79.64
42671;BME280;28283;55.426;37.756;2022-11-02T01:43:25;99151.47;;;1.45;79.93
42671;BME280;28283;55.426;37.756;2022-11-02T01:48:32;99127.97;;;1.32;79.87
42671;BME280;28283;55.426;37.756;2022-11-02T01:53:35;99143.31;;;1.39;80.23
42671;BME280;28283;55.426;37.756;2022-11-02T01:58:36;99156.34;;;1.50;79.54
42671;BME280;28283;55.426;37.756;2022-11-02T02:03:37;99092.56;;;1.06;79.92
42671;BME280;28283;55.426;37.756;2022-11-02T02:08:42;99152.97;;;1.30;80.52
42671;BME280;28283;55.426;37.756;2022-11-02T02:13:44;99150.31;;;1.30;80.37
42671;BME280;28283;55.426;37.756;2022-11-02T02:18:48;99147.38;;;1.33;80.09
42671;BME280;28283;55.426;37.756;2022-11-02T02:24:09;99171.75;;;1.37;81.03
42671;BME280;28283;55.426;37.756;2022-11-02T02:29:23;99163.34;;;1.41;80.80
42671;BME280;28283;55.426;37.756;2022-11-02T02:39:40;99157.94;;;1.61;81.09
42671;BME280;28283;55.426;37.756;2022-11-02T02:44:57;99163.91;;;1.73;81.29
42671;BME280;28283;55.426;37.756;2022-11-02T02:50:27;99155.72;;;1.84;81.33
42671;BME280;28283;55.426;37.756;2022-11-02T02:55:32;99151.56;;;1.81;80.89
42671;BME280;28283;55.426;37.756;2022-11-02T03:00:35;99154.22;;;1.81;81.32
42671;BME280;28283;55.426;37.756;2022-11-02T03:05:36;99139.03;;;1.74;81.15
42671;BME280;28283;55.426;37.756;2022-11-02T03:10:46;99095.56;;;1.48;81.13
42671;BME280;28283;55.426;37.756;2022-11-02T03:15:52;99147.53;;;1.77;81.15
42671;BME280;28283;55.426;37.756;2022-11-02T03:21:37;99156.25;;;1.87;81.47
42671;BME280;28283;55.426;37.756;2022-11-02T03:26:45;99152.09;;;1.85;80.96
42671;BME280;28283;55.426;37.756;2022-11-02T03:31:57;99150.81;;;1.89;81.09
42671;BME280;28283;55.426;37.756;2022-11-02T03:37:04;99119.53;;;1.75;81.23
42671;BME280;28283;55.426;37.756;2022-11-02T03:42:10;99156.34;;;1.96;80.92
42671;BME280;28283;55.426;37.756;2022-11-02T03:47:14;99128.97;;;1.77;80.88
42671;BME280;28283;55.426;37.756;2022-11-02T03:52:22;99150.00;;;1.88;81.09
42671;BME280;28283;55.426;37.756;2022-11-02T03:57:31;99144.38;;;1.91;80.57
42671;BME280;28283;55.426;37.756;2022-11-02T04:02:35;99150.00;;;1.88;80.75
42671;BME280;28283;55.426;37.756;2022-11-02T04:07:38;99149.66;;;1.91;81.00
42671;BME280;28283;55.426;37.756;2022-11-02T04:12:59;99123.44;;;1.70;80.86
42671;BME280;28283;55.426;37.756;2022-11-02T04:18:18;99159.00;;;1.96;81.07
42671;BME280;28283;55.426;37.756;2022-11-02T04:23:37;99154.97;;;1.91;81.13
42671;BME280;28283;55.426;37.756;2022-11-02T04:28:57;99081.03;;;1.52;81.24
42671;BME280;28283;55.426;37.756;2022-11-02T04:33:58;99125.88;;;1.82;80.82
42671;BME280;28283;55.426;37.756;2022-11-02T04:38:59;99144.84;;;1.87;81.46
42671;BME280;28283;55.426;37.756;2022-11-02T04:44:00;99144.31;;;1.83;81.70
42671;BME280;28283;55.426;37.756;2022-11-02T04:49:01;99142.91;;;1.79;81.26
42671;BME280;28283;55.426;37.756;2022-11-02T04:54:02;99135.72;;;1.89;81.13
42671;BME280;28283;55.426;37.756;2022-11-02T04:59:03;99139.72;;;1.76;81.38
42671;BME280;28283;55.426;37.756;2022-11-02T05:04:04;99119.56;;;1.65;81.65
42671;BME280;28283;55.426;37.756;2022-11-02T05:09:05;99132.78;;;1.75;81.60
42671;BME280;28283;55.426;37.756;2022-11-02T05:14:05;99105.25;;;1.58;81.32
42671;BME280;28283;55.426;37.756;2022-11-02T05:19:06;99125.94;;;1.72;81.25
42671;BME280;28283;55.426;37.756;2022-11-02T05:24:07;99122.47;;;1.71;81.52
42671;BME280;28283;55.426;37.756;2022-11-02T05:29:08;99107.22;;;1.56;81.61
42671;BME280;28283;55.426;37.756;2022-11-02T05:34:08;99115.41;;;1.62;81.61
42671;BME280;28283;55.426;37.756;2022-11-02T05:39:09;99147.38;;;1.79;81.94
42671;BME280;28283;55.426;37.756;2022-11-02T05:44:10;99127.22;;;1.68;81.79
42671;BME280;28283;55.426;37.756;2022-11-02T05:49:10;99103.28;;;1.60;82.01
42671;BME280;28283;55.426;37.756;2022-11-02T05:54:11;99116.63;;;1.68;82.10
42671;BME280;28283;55.426;37.756;2022-11-02T05:59:11;99143.22;;;1.76;81.76
42671;BME280;28283;55.426;37.756;2022-11-02T06:04:12;99155.34;;;1.79;81.80
42671;BME280;28283;55.426;37.756;2022-11-02T06:09:13;99135.28;;;1.76;81.82
42671;BME280;28283;55.426;37.756;2022-11-02T06:14:13;99141.25;;;1.78;81.26
42671;BME280;28283;55.426;37.756;2022-11-02T06:19:14;99087.22;;;1.43;81.46
42671;BME280;28283;55.426;37.756;2022-11-02T06:24:15;99091.09;;;1.49;81.61
42671;BME280;28283;55.426;37.756;2022-11-02T06:29:16;99124.06;;;1.82;81.61
42671;BME280;28283;55.426;37.756;2022-11-02T06:34:16;99139.75;;;1.94;81.29
42671;BME280;28283;55.426;37.756;2022-11-02T06:39:17;99123.78;;;1.85;81.02
42671;BME280;28283;55.426;37.756;2022-11-02T06:44:18;99136.50;;;2.00;81.47
42671;BME280;28283;55.426;37.756;2022-11-02T06:49:18;99139.84;;;2.02;81.60
42671;BME280;28283;55.426;37.756;2022-11-02T06:54:19;99128.03;;;1.96;80.89
42671;BME280;28283;55.426;37.756;2022-11-02T06:59:20;99133.19;;;1.98;80.97
42671;BME280;28283;55.426;37.756;2022-11-02T07:04:20;99149.09;;;1.98;81.20
42671;BME280;28283;55.426;37.756;2022-11-02T07:09:21;99141.41;;;1.95;80.71
42671;BME280;28283;55.426;37.756;2022-11-02T07:14:22;99140.28;;;1.97;80.58
42671;BME280;28283;55.426;37.756;2022-11-02T07:19:22;99120.44;;;1.83;81.03
42671;BME280;28283;55.426;37.756;2022-11-02T07:24:23;99124.00;;;1.92;80.58
42671;BME280;28283;55.426;37.756;2022-11-02T07:29:24;99148.56;;;2.12;80.66
42671;BME280;28283;55.426;37.756;2022-11-02T07:34:24;99082.88;;;1.70;80.11
42671;BME280;28283;55.426;37.756;2022-11-02T07:39:25;99077.13;;;1.57;80.70
42671;BME280;28283;55.426;37.756;2022-11-02T07:44:26;99152.13;;;2.03;80.57
42671;BME280;28283;55.426;37.756;2022-11-02T07:49:27;99168.03;;;2.03;80.60
42671;BME280;28283;55.426;37.756;2022-11-02T07:54:27;99123.53;;;1.79;80.74
42671;BME280;28283;55.426;37.756;2022-11-02T07:59:28;99168.31;;;2.00;80.76
42671;BME280;28283;55.426;37.756;2022-11-02T08:04:28;99108.16;;;1.64;80.75
42671;BME280;28283;55.426;37.756;2022-11-02T08:09:29;99169.28;;;1.99;80.88
42671;BME280;28283;55.426;37.756;2022-11-02T08:14:30;99174.53;;;2.08;80.60
42671;BME280;28283;55.426;37.756;2022-11-02T08:19:31;99160.41;;;2.08;80.35
42671;BME280;28283;55.426;37.756;2022-11-02T08:24:31;99100.13;;;1.74;80.54
42671;BME280;28283;55.426;37.756;2022-11-02T08:29:32;99004.13;;;1.08;79.67
42671;BME280;28283;55.426;37.756;2022-11-02T08:34:34;99127.75;;;1.71;81.05
42671;BME280;28283;55.426;37.756;2022-11-02T08:39:36;99149.59;;;1.83;80.78
42671;BME280;28283;55.426;37.756;2022-11-02T08:44:36;99150.06;;;1.97;80.95
42671;BME280;28283;55.426;37.756;2022-11-02T08:49:37;99149.53;;;1.93;80.85
42671;BME280;28283;55.426;37.756;2022-11-02T08:54:38;99150.59;;;2.00;81.79
42671;BME280;28283;55.426;37.756;2022-11-02T08:59:39;99075.75;;;1.70;81.19
42671;BME280;28283;55.426;37.756;2022-11-02T09:04:39;99135.44;;;2.10;80.61
42671;BME280;28283;55.426;37.756;2022-11-02T09:09:40;99119.44;;;1.84;80.39
42671;BME280;28283;55.426;37.756;2022-11-02T09:14:44;99119.59;;;1.83;81.11
42671;BME280;28283;55.426;37.756;2022-11-02T09:19:45;99090.66;;;1.71;81.52
42671;BME280;28283;55.426;37.756;2022-11-02T09:24:45;99108.16;;;1.82;81.28
42671;BME280;28283;55.426;37.756;2022-11-02T09:29:46;99113.41;;;1.92;80.37
42671;BME280;28283;55.426;37.756;2022-11-02T09:34:47;99129.91;;;2.04;80.58
42671;BME280;28283;55.426;37.756;2022-11-02T09:39:49;99152.66;;;2.24;80.93
42671;BME280;28283;55.426;37.756;2022-11-02T09:45:11;99144.06;;;2.31;80.46
42671;BME280;28283;55.426;37.756;2022-11-02T09:50:18;99159.97;;;2.31;80.27
42671;BME280;28283;55.426;37.756;2022-11-02T09:55:25;99138.09;;;2.28;79.77
42671;BME280;28283;55.426;37.756;2022-11-02T10:00:29;99131.72;;;2.21;80.49
42671;BME280;28283;55.426;37.756;2022-11-02T10:05:57;99143.25;;;2.30;80.01
42671;BME280;28283;55.426;37.756;2022-11-02T10:17:16;99122.47;;;2.25;79.50
42671;BME280;28283;55.426;37.756;2022-11-02T10:22:20;99136.78;;;2.33;79.45
42671;BME280;28283;55.426;37.756;2022-11-02T10:27:27;99133.03;;;2.17;79.64
42671;BME280;28283;55.426;37.756;2022-11-02T10:32:34;99148.31;;;2.23;80.00
42671;BME280;28283;55.426;37.756;2022-11-02T10:37:44;99138.84;;;2.21;79.72
42671;BME280;28283;55.426;37.756;2022-11-02T10:43:10;99153.69;;;2.32;80.11
42671;BME280;28283;55.426;37.756;2022-11-02T10:48:33;99164.47;;;2.30;79.09
42671;BME280;28283;55.426;37.756;2022-11-02T10:53:43;99126.19;;;1.97;79.53
42671;BME280;28283;55.426;37.756;2022-11-02T10:59:13;99162.63;;;2.31;79.40
42671;BME280;28283;55.426;37.756;2022-11-02T11:04:21;99130.53;;;2.16;79.45
42671;BME280;28283;55.426;37.756;2022-11-02T11:09:28;99124.69;;;2.12;79.29
42671;BME280;28283;55.426;37.756;2022-11-02T11:14:36;99148.06;;;2.35;79.15
42671;BME280;28283;55.426;37.756;2022-11-02T11:19:51;99139.28;;;2.34;79.23
42671;BME280;28283;55.426;37.756;2022-11-02T11:25:20;99135.81;;;2.34;79.09
42671;BME280;28283;55.426;37.756;2022-11-02T11:30:30;99109.84;;;2.19;78.64
42671;BME280;28283;55.426;37.756;2022-11-02T11:35:34;99112.09;;;2.14;78.57
42671;BME280;28283;55.426;37.756;2022-11-02T11:40:38;99120.97;;;2.23;78.56
42671;BME280;28283;55.426;37.756;2022-11-02T11:45:39;99120.03;;;2.32;77.67
42671;BME280;28283;55.426;37.756;2022-11-02T11:50:52;99137.78;;;2.32;77.90
42671;BME280;28283;55.426;37.756;2022-11-02T11:55:58;99138.84;;;2.21;78.20
42671;BME280;28283;55.426;37.756;2022-11-02T12:01:15;99118.47;;;2.03;78.45
42671;BME280;28283;55.426;37.756;2022-11-02T12:06:43;99123.63;;;2.23;78.63
42671;BME280;28283;55.426;37.756;2022-11-02T12:38:48;99145.25;;;2.54;76.38
42671;BME280;28283;55.426;37.756;2022-11-02T12:43:59;99128.75;;;2.42;76.68
42671;BME280;28283;55.426;37.756;2022-11-02T12:54:50;99151.81;;;2.68;76.85
42671;BME280;28283;55.426;37.756;2022-11-02T12:59:52;99118.31;;;2.23;75.64
42671;BME280;28283;55.426;37.756;2022-11-02T13:05:18;99165.91;;;2.42;75.24
42671;BME280;28283;55.426;37.756;2022-11-02T13:10:27;99164.66;;;2.37;75.46
42671;BME280;28283;55.426;37.756;2022-11-02T13:15:32;99167.25;;;2.28;74.80
42671;BME280;28283;55.426;37.756;2022-11-02T13:20:48;99169.22;;;2.26;74.78
42671;BME280;28283;55.426;37.756;2022-11-02T13:25:55;99122.88;;;1.95;74.69
42671;BME280;28283;55.426;37.756;2022-11-02T13:31:00;99174.44;;;2.18;74.67
42671;BME280;28283;55.426;37.756;2022-11-02T13:36:03;99182.03;;;2.13;74.44
42671;BME280;28283;55.426;37.756;2022-11-02T13:46:51;99186.34;;;2.14;74.56
42671;BME280;28283;55.426;37.756;2022-11-02T13:52:04;99177.25;;;1.99;74.78
42671;BME280;28283;55.426;37.756;2022-11-02T14:02:22;99189.50;;;1.82;75.00
42671;BME280;28283;55.426;37.756;2022-11-02T14:07:31;99186.88;;;1.72;75.29
42671;BME280;28283;55.426;37.756;2022-11-02T14:12:44;99180.03;;;1.51;74.79
42671;BME280;28283;55.426;37.756;2022-11-02T14:34:02;99195.41;;;1.38;75.93
42671;BME280;28283;55.426;37.756;2022-11-02T14:45:01;99199.09;;;1.27;75.75
42671;BME280;28283;55.426;37.756;2022-11-02T14:50:19;99200.81;;;1.19;75.05
42671;BME280;28283;55.426;37.756;2022-11-02T14:55:24;99200.41;;;1.04;75.80
42671;BME280;28283;55.426;37.756;2022-11-02T15:00:35;99195.84;;;0.96;75.82
42671;BME280;28283;55.426;37.756;2022-11-02T15:05:38;99209.81;;;0.88;75.69
42671;BME280;28283;55.426;37.756;2022-11-02T15:10:42;99189.63;;;0.78;75.89
42671;BME280;28283;55.426;37.756;2022-11-02T15:31:32;99208.41;;;0.84;76.37
42671;BME280;28283;55.426;37.756;2022-11-02T15:36:36;99150.84;;;0.49;76.35
42671;BME280;28283;55.426;37.756;2022-11-02T15:41:47;99165.28;;;0.54;75.92
42671;BME280;28283;55.426;37.756;2022-11-02T15:47:03;99191.84;;;0.72;76.00
42671;BME280;28283;55.426;37.756;2022-11-02T15:57:49;99221.94;;;0.71;76.21
42671;BME280;28283;55.426;37.756;2022-11-02T16:02:52;99165.44;;;0.33;76.59
42671;BME280;28283;55.426;37.756;2022-11-02T16:07:55;99203.00;;;0.56;76.05
42671;BME280;28283;55.426;37.756;2022-11-02T16:13:20;99219.59;;;0.68;76.66
42671;BME280;28283;55.426;37.756;2022-11-02T16:18:25;99173.41;;;0.24;76.15
42671;BME280;28283;55.426;37.756;2022-11-02T16:23:29;99233.50;;;0.51;76.08
42671;BME280;28283;55.426;37.756;2022-11-02T16:28:32;99237.41;;;0.47;76.10
42671;BME280;28283;55.426;37.756;2022-11-02T16:33:54;99194.25;;;0.17;76.01
42671;BME280;28283;55.426;37.756;2022-11-02T16:39:01;99207.19;;;0.10;76.50
42671;BME280;28283;55.426;37.756;2022-11-02T16:44:13;99250.88;;;0.34;76.51
42671;BME280;28283;55.426;37.756;2022-11-02T16:49:16;99250.47;;;0.29;76.50
42671;BME280;28283;55.426;37.756;2022-11-02T16:59:30;99229.88;;;0.13;76.25
42671;BME280;28283;55.426;37.756;2022-11-02T17:04:32;99240.00;;;0.17;76.67
42671;BME280;28283;55.426;37.756;2022-11-02T17:09:38;99231.81;;;0.11;76.33
42671;BME280;28283;55.426;37.756;2022-11-02T17:14:40;99240.88;;;0.28;76.38
42671;BME280;28283;55.426;37.756;2022-11-02T17:19:43;99206.75;;;0.05;76.25
42671;BME280;28283;55.426;37.756;2022-11-02T17:24:46;99229.88;;;0.13;75.86
42671;BME280;28283;55.426;37.756;2022-11-02T17:29:47;99248.75;;;0.08;76.03
42671;BME280;28283;55.426;37.756;2022-11-02T17:34:55;99218.69;;;-0.10;76.24
42671;BME280;28283;55.426;37.756;2022-11-02T17:39:59;99252.41;;;0.07;76.04
42671;BME280;28283;55.426;37.756;2022-11-02T17:45:29;99246.94;;;0.09;76.19
42671;BME280;28283;55.426;37.756;2022-11-02T17:50:32;99254.88;;;-0.01;75.93
42671;BME280;28283;55.426;37.756;2022-11-02T17:55:33;99222.41;;;-0.23;76.19
42671;BME280;28283;55.426;37.756;2022-11-02T18:00:35;99238.84;;;-0.19;76.38
42671;BME280;28283;55.426;37.756;2022-11-02T18:05:39;99251.78;;;-0.06;76.41
42671;BME280;28283;55.426;37.756;2022-11-02T18:10:42;99270.34;;;0.04;76.57
42671;BME280;28283;55.426;37.756;2022-11-02T18:15:43;99199.59;;;-0.33;76.45
42671;BME280;28283;55.426;37.756;2022-11-02T18:20:43;99197.78;;;-0.33;76.42
42671;BME280;28283;55.426;37.756;2022-11-02T18:25:44;99260.47;;;0.06;76.46
42671;BME280;28283;55.426;37.756;2022-11-02T18:30:45;99260.47;;;0.06;76.52
42671;BME280;28283;55.426;37.756;2022-11-02T18:35:45;99231.03;;;-0.21;76.04
42671;BME280;28283;55.426;37.756;2022-11-02T18:40:46;99270.59;;;0.01;76.26
42671;BME280;28283;55.426;37.756;2022-11-02T18:45:47;99243.44;;;-0.21;76.68
42671;BME280;28283;55.426;37.756;2022-11-02T18:50:48;99258.91;;;-0.07;76.53
42671;BME280;28283;55.426;37.756;2022-11-02T18:55:48;99244.94;;;-0.18;76.49
42671;BME280;28283;55.426;37.756;2022-11-02T19:00:49;99268.03;;;-0.11;76.79
42671;BME280;28283;55.426;37.756;2022-11-02T19:05:55;99242.47;;;-0.10;76.87
42671;BME280;28283;55.426;37.756;2022-11-02T19:11:14;99221.72;;;-0.25;76.54
42671;BME280;28283;55.426;37.756;2022-11-02T19:16:15;99242.28;;;-0.28;76.99
42671;BME280;28283;55.426;37.756;2022-11-02T19:21:16;99259.16;;;-0.10;76.98
42671;BME280;28283;55.426;37.756;2022-11-02T19:26:17;99264.38;;;0.11;76.74
42671;BME280;28283;55.426;37.756;2022-11-02T19:31:17;99224.06;;;-0.22;77.04
42671;BME280;28283;55.426;37.756;2022-11-02T19:36:18;99219.91;;;-0.34;76.82
42671;BME280;28283;55.426;37.756;2022-11-02T19:41:19;99236.09;;;0.02;76.12
42671;BME280;28283;55.426;37.756;2022-11-02T19:46:21;99200.59;;;-0.25;75.59
42671;BME280;28283;55.426;37.756;2022-11-02T19:51:25;99276.28;;;-0.04;76.09
42671;BME280;28283;55.426;37.756;2022-11-02T19:56:28;99257.06;;;-0.16;76.69
42671;BME280;28283;55.426;37.756;2022-11-02T20:06:33;99253.25;;;-0.64;77.97
42671;BME280;28283;55.426;37.756;2022-11-02T20:11:35;99289.78;;;-0.38;78.20
42671;BME280;28283;55.426;37.756;2022-11-02T20:16:36;99257.94;;;-0.46;77.55
42671;BME280;28283;55.426;37.756;2022-11-02T20:21:37;99068.63;;;-1.88;78.44
42671;BME280;28283;55.426;37.756;2022-11-02T20:26:39;99230.31;;;-0.94;78.70
42671;BME280;28283;55.426;37.756;2022-11-02T20:31:40;99302.72;;;-0.35;78.93
42671;BME280;28283;55.426;37.756;2022-11-02T20:36:41;99293.44;;;-0.29;78.70
42671;BME280;28283;55.426;37.756;2022-11-02T20:41:42;99264.88;;;-0.45;78.63
42671;BME280;28283;55.426;37.756;2022-11-02T20:46:42;99284.50;;;-0.38;78.65
42671;BME280;28283;55.426;37.756;2022-11-02T20:51:47;99292.84;;;-0.43;78.35
42671;BME280;28283;55.426;37.756;2022-11-02T20:56:49;99305.94;;;-0.31;78.20
42671;BME280;28283;55.426;37.756;2022-11-02T21:01:49;99303.91;;;-0.49;78.66
42671;BME280;28283;55.426;37.756;2022-11-02T21:06:50;99259.66;;;-0.66;78.08
42671;BME280;28283;55.426;37.756;2022-11-02T21:11:51;99278.19;;;-0.47;77.65
42671;BME280;28283;55.426;37.756;2022-11-02T21:17:10;99309.03;;;-0.57;78.48
42671;BME280;28283;55.426;37.756;2022-11-02T21:22:11;99292.13;;;-0.45;77.87
42671;BME280;28283;55.426;37.756;2022-11-02T21:27:11;99273.25;;;-0.61;78.10
42671;BME280;28283;55.426;37.756;2022-11-02T21:32:12;99269.81;;;-0.83;78.99
42671;BME280;28283;55.426;37.756;2022-11-02T21:37:13;99280.69;;;-0.76;77.77
42671;BME280;28283;55.426;37.756;2022-11-02T21:42:14;99283.91;;;-0.72;77.71
42671;BME280;28283;55.426;37.756;2022-11-02T21:47:14;99301.59;;;-0.63;78.25
42671;BME280;28283;55.426;37.756;2022-11-02T21:52:15;99286.97;;;-0.98;78.45
42671;BME280;28283;55.426;37.756;2022-11-02T21:57:16;99318.88;;;-0.59;77.96
42671;BME280;28283;55.426;37.756;2022-11-02T22:02:17;99309.72;;;-0.97;78.94
42671;BME280;28283;55.426;37.756;2022-11-02T22:07:19;99292.16;;;-1.08;79.32
42671;BME280;28283;55.426;37.756;2022-11-02T22:12:20;99296.59;;;-1.08;79.66
42671;BME280;28283;55.426;37.756;2022-11-02T22:17:39;99309.09;;;-0.89;79.44
42671;BME280;28283;55.426;37.756;2022-11-02T22:22:40;99274.78;;;-1.10;79.40
42671;BME280;28283;55.426;37.756;2022-11-02T22:27:41;99292.81;;;-0.73;78.56
42671;BME280;28283;55.426;37.756;2022-11-02T22:32:41;99318.44;;;-0.85;78.60
42671;BME280;28283;55.426;37.756;2022-11-02T22:37:42;99251.69;;;-1.39;79.79
42671;BME280;28283;55.426;37.756;2022-11-02T22:43:02;99259.53;;;-1.28;79.42
42671;BME280;28283;55.426;37.756;2022-11-02T22:48:03;99319.72;;;-0.80;79.32
42671;BME280;28283;55.426;37.756;2022-11-02T22:53:04;99338.06;;;-0.78;79.61
42671;BME280;28283;55.426;37.756;2022-11-02T22:58:05;99310.88;;;-0.90;79.10
42671;BME280;28283;55.426;37.756;2022-11-02T23:03:06;99334.63;;;-0.69;78.95
42671;BME280;28283;55.426;37.756;2022-11-02T23:08:06;99293.00;;;-0.86;78.57
42671;BME280;28283;55.426;37.756;2022-11-02T23:13:07;99320.72;;;-0.92;79.21
42671;BME280;28283;55.426;37.756;2022-11-02T23:18:08;99306.59;;;-0.91;78.53
42671;BME280;28283;55.426;37.756;2022-11-02T23:23:09;99313.84;;;-0.83;78.98
42671;BME280;28283;55.426;37.756;2022-11-02T23:28:28;99317.38;;;-0.94;78.77
42671;BME280;28283;55.426;37.756;2022-11-02T23:33:48;99271.38;;;-1.43;79.52
42671;BME280;28283;55.426;37.756;2022-11-02T23:38:48;99304.69;;;-1.21;79.81
42671;BME280;28283;55.426;37.756;2022-11-02T23:44:07;99327.03;;;-1.04;80.16
42671;BME280;28283;55.426;37.756;2022-11-02T23:49:12;99314.03;;;-1.17;80.06
42671;BME280;28283;55.426;37.756;2022-11-02T23:54:13;99324.22;;;-1.12;80.53
42671;BME280;28283;55.426;37.756;2022-11-02T23:59:32;99321.03;;;-1.06;80.86
